Home   Weather   Spain   Valencia   Past weeks
Flag for Spain

Past Weather in Valencia, Valencia, Spain — Yesterday and Last 2 Weeks

Currently: 73 °F. Sunny. (Weather station: Valencia / Aeropuerto, Spain). See more current weather

Past Weather in Valencia — Graph

°F

Valencia Temperature Yesterday

Maximum temperature yesterday: 79 °F (at 4:30 pm)
Minimum temperature yesterday: 57 °F (at 6:30 am)
Average temperature yesterday: 68 °F

High & Low Weather Summary for the Past Weeks

 TemperatureHumidityPressure
High86 °F (Sep 16, 3:30 pm)94% (Sep 18, 8:30 am)30.27 "Hg (Sep 18, 8:30 am)
Low55 °F (Oct 1, 8:00 am)19% (Sep 27, 5:30 pm)29.59 "Hg (Sep 29, 4:30 pm)
Average72 °F63%29.93 "Hg
* Reported Sep 16 11:00 am — Oct 1 11:30 am, Valencia. Weather by CustomWeather, © 2022

Note: Actual official high and low records may vary slightly from our data, if they occured in-between our weather recording intervals... More about our weather records

Valencia Weather History for the Previous 24 Hours

Scroll right to see more
 ConditionsComfort  
Time TempWeatherWind HumidityBarometerVisibility
11:30 am
Sat, Oct 1
73 °FSunny.2 mph33%30.27 "Hg10 mi
11:00 am70 °FSunny.2 mph38%30.27 "Hg10 mi
10:30 am66 °FSunny.2 mph43%30.27 "Hg10 mi
10:00 am64 °FSunny.2 mph46%30.27 "Hg10 mi
9:00 am57 °FSunny.2 mph63%30.24 "Hg10 mi
8:30 am55 °FSunny.5 mph63%30.21 "Hg10 mi
8:00 am55 °FPassing clouds.5 mph63%30.21 "HgN/A
7:30 am57 °FClear.7 mph59%30.18 "Hg10 mi
7:00 am59 °FClear.9 mph55%30.18 "Hg10 mi
6:30 am59 °FClear.9 mph55%30.18 "Hg10 mi
6:00 am57 °FClear.5 mph59%30.15 "Hg10 mi
5:30 am57 °FClear.7 mph59%30.15 "Hg10 mi
5:00 am57 °FClear.9 mph55%30.15 "Hg10 mi
4:30 am59 °FClear.12 mph51%30.15 "Hg10 mi
4:00 am59 °FClear.10 mph51%30.15 "Hg10 mi
3:30 am59 °FClear.8 mph51%30.15 "Hg10 mi
3:00 am57 °FClear.6 mph59%30.12 "Hg10 mi
1:30 am59 °FClear.3 mph63%30.12 "Hg10 mi
1:00 am59 °FClear.2 mph68%30.09 "Hg10 mi
12:30 am61 °FPassing clouds.5 mph63%30.09 "HgN/A
12:00 am61 °FClear.3 mph63%30.09 "Hg10 mi
11:30 pm
Fri, Sep 30
61 °FClear.2 mph63%30.09 "Hg10 mi
11:00 pm63 °FPassing clouds.3 mph59%30.07 "HgN/A
10:30 pm63 °FPassing clouds.5 mph59%30.07 "HgN/A
9:30 pm64 °FClear.5 mph56%30.04 "Hg10 mi
9:00 pm70 °FClear.2 mph43%30.04 "Hg10 mi
8:30 pm70 °FPassing clouds.5 mph43%30.01 "HgN/A
8:00 pm70 °FPassing clouds.6 mph43%29.98 "HgN/A
7:30 pm72 °FPassing clouds.9 mph41%29.98 "HgN/A
6:30 pm72 °FPassing clouds.12 mph41%29.95 "HgN/A
6:00 pm73 °FPassing clouds.13 mph41%29.92 "HgN/A
5:30 pm75 °FPassing clouds.14 mph36%29.92 "HgN/A
5:00 pm77 °FPassing clouds.8 mph32%29.92 "HgN/A
4:30 pm79 °FPassing clouds.16 mph23%29.89 "HgN/A
4:00 pm77 °FPassing clouds.16 mph22%29.89 "HgN/A
3:00 pm77 °FPassing clouds.14 mph24%29.89 "HgN/A
2:30 pm75 °FPassing clouds.14 mph25%29.89 "HgN/A
2:00 pm75 °FPassing clouds.17 mph25%29.89 "HgN/A
1:30 pm75 °FPassing clouds.13 mph27%29.89 "HgN/A
1:00 pm73 °FPassing clouds.9 mph29%29.89 "HgN/A
12:30 pm73 °FPassing clouds.15 mph29%29.89 "HgN/A
12:00 pm72 °FPassing clouds.9 mph31%29.89 "HgN/A
Weather by CustomWeather, © 2022

See weather overview